Airfield :
LOGIN :

Register | Disclaimer

   EN    FR    IT 

 










Legend :    VFR   Marginal VFR   IFR   Intensive IFR   Very Intensive IFR
Visi :
Ceiling :
>= 8 km
>= 3000ft
5 to 8 km
1000 to 3000 ft
1500m to 5 km
500 to 1000 ft
800 to 1500m
200 to 500 ft
< 800m
< 200 ft
Symbols :   Thunderstorms  Fog  Heavy snow  Heavy precipitations  Wind > 20 kt
SIGMETs :     Misc.  Thunderstorms  Icing  Turbulence  Mountain Waves  Volcanic Ashes






- Airport Elevation : 79 ft
- IATA code : SPU


LDSP - Split

CURRENT METAR :
  • 190530Z VRB02KT CAVOK 31/18 Q1014 NOSIG

EXPIRED METARs :
  • 190500Z VRB01KT CAVOK 29/20 Q1014 NOSIG
  • 190430Z 34005KT CAVOK 29/18 Q1014 NOSIG
  • 190400Z 35005KT 310V010 CAVOK 28/18 Q1014 NOSIG
  • 190330Z 36006KT CAVOK 28/18 Q1013 NOSIG
  • 190300Z 34006KT 320V020 CAVOK 28/18 Q1014 NOSIG
  • 190230Z AUTO 33006KT CAVOK 29/18 Q1013 NOSIG
  • 190200Z AUTO 34004KT CAVOK 29/18 Q1013 NOSIG
  • 190130Z AUTO 34007KT CAVOK 29/18 Q1013
  • 190100Z AUTO 34005KT CAVOK 28/19 Q1013

TAF TAF LDSP
Valid from the 19 at 06:00 until the 20 at 06:00 UTC


190525Z 1906/2006 VRB02KT CAVOK TX37/1913Z TN26/2003Z
BECMG 1907/1909 23010KT
PROB30
TEMPO 1911/1916 -TSRA FEW050CB
BECMG 1915/1917 30008KT



MET'MAP, your aeronautical weather chart ! - Copyright ORBIFLY December 2007 - Disclaimer

ORBIFLY MET'MAP TEAM :

Programming & Development : Alexandra Zaïnal
Original concept : Baudouin d'Aumeries
Technical & hardware support : Manuel Goepfert
Assistance : Marc-Olivier Méhu




SOURCES & CREDITS :

   NOAA